Time;durP1;ratioP1;P1;durP2;ratioP2;P2;SDS_P1;SDS_P2;PMS_P1;PMS_P2;Temp;Humidity;BMP_temperature;BMP_pressure;BME280_temperature;BME280_humidity;BME280_pressure;Samples;Min_cycle;Max_cycle;Signal;HPM_P1;HPM_P2
2023/01/15 00:01:21;;;;;;;27.42;22.02;;;6.30;99.90;;;;;;4998132;28;20045;-75
2023/01/15 00:03:47;;;;;;;30.77;21.85;;;6.30;99.90;;;;;;5000931;28;20615;-76
2023/01/15 00:06:14;;;;;;;27.33;21.98;;;6.30;99.90;;;;;;4997832;28;20455;-75
2023/01/15 00:08:40;;;;;;;28.65;22.02;;;6.30;99.90;;;;;;4999309;28;20608;-75
2023/01/15 00:11:06;;;;;;;26.75;21.90;;;6.30;99.90;;;;;;4999781;28;20030;-75
2023/01/15 00:13:31;;;;;;;31.48;22.52;;;6.30;99.90;;;;;;4998228;28;20031;-75
2023/01/15 00:16:12;;;;;;;34.38;23.58;;;6.40;99.90;;;;;;4998496;28;20534;-75
2023/01/15 00:18:38;;;;;;;31.80;23.05;;;6.40;99.90;;;;;;4995811;28;20088;-75
2023/01/15 00:21:07;;;;;;;28.27;23.20;;;6.40;99.90;;;;;;4997361;28;20393;-75
2023/01/15 00:29:04;;;;;;;32.35;23.90;;;6.40;99.90;;;;;;4994202;28;20029;-75
2023/01/15 00:31:31;;;;;;;31.27;23.20;;;6.40;99.90;;;;;;4995742;28;20026;-75
2023/01/15 00:33:57;;;;;;;29.48;22.88;;;6.30;99.90;;;;;;4993504;28;20031;-75
2023/01/15 00:36:24;;;;;;;29.90;22.77;;;6.30;99.90;;;;;;4997798;28;20059;-75
2023/01/15 00:38:50;;;;;;;31.23;23.02;;;6.40;99.90;;;;;;5082800;28;20049;-75
2023/01/15 00:41:16;;;;;;;29.08;22.73;;;6.40;99.90;;;;;;4998197;28;20018;-76
2023/01/15 00:43:42;;;;;;;30.63;22.95;;;6.50;99.90;;;;;;5000052;28;20430;-76
2023/01/15 00:46:07;;;;;;;31.30;22.73;;;6.50;99.90;;;;;;4994986;28;20026;-75
2023/01/15 00:48:34;;;;;;;30.17;23.30;;;6.50;99.90;;;;;;4995785;28;20021;-76
2023/01/15 00:51:03;;;;;;;31.88;23.40;;;6.50;99.90;;;;;;4997490;28;20621;-76
2023/01/15 00:53:29;;;;;;;29.73;24.08;;;6.50;99.90;;;;;;4993495;28;20466;-76
2023/01/15 00:55:55;;;;;;;30.98;24.10;;;6.50;99.90;;;;;;4994881;28;20033;-75
2023/01/15 00:58:22;;;;;;;31.20;24.50;;;6.50;99.90;;;;;;4998385;28;20022;-75
2023/01/15 01:00:53;;;;;;;27.08;22.92;;;6.50;99.90;;;;;;4997534;28;20098;-75
2023/01/15 01:03:19;;;;;;;31.38;23.20;;;6.60;99.90;;;;;;4999143;28;20043;-75
2023/01/15 01:05:44;;;;;;;28.27;22.88;;;6.60;99.90;;;;;;5000332;28;20032;-76
2023/01/15 01:08:10;;;;;;;29.42;23.30;;;6.60;99.90;;;;;;4996791;28;20031;-75
2023/01/15 01:10:36;;;;;;;31.38;24.55;;;6.60;99.90;;;;;;5001021;28;20084;-75
2023/01/15 01:13:01;;;;;;;28.20;22.85;;;6.60;99.90;;;;;;4996271;28;20030;-75
2023/01/15 01:15:27;;;;;;;33.67;24.52;;;6.60;99.90;;;;;;5000022;28;20112;-76
2023/01/15 01:17:53;;;;;;;31.17;23.55;;;6.60;99.90;;;;;;5000128;28;20473;-75
2023/01/15 01:20:19;;;;;;;30.65;23.23;;;6.60;99.90;;;;;;4999494;28;20036;-76
2023/01/15 01:22:48;;;;;;;29.83;24.17;;;6.60;99.90;;;;;;4997057;28;20053;-75
2023/01/15 01:25:14;;;;;;;34.40;23.27;;;6.60;99.90;;;;;;4992904;28;20069;-75
2023/01/15 01:27:43;;;;;;;30.38;23.15;;;6.60;99.90;;;;;;4999595;28;20097;-75
2023/01/15 01:30:09;;;;;;;29.70;23.27;;;6.60;99.90;;;;;;4997486;28;20041;-75
2023/01/15 01:32:34;;;;;;;27.05;21.75;;;6.60;99.90;;;;;;4997443;28;20478;-75
2023/01/15 01:35:00;;;;;;;31.55;23.25;;;6.60;99.90;;;;;;4997950;28;20061;-75
2023/01/15 01:37:26;;;;;;;27.83;22.08;;;6.60;99.90;;;;;;5000084;28;20030;-75
2023/01/15 01:39:51;;;;;;;29.00;22.17;;;6.60;99.90;;;;;;4996330;28;20080;-75
2023/01/15 01:42:17;;;;;;;30.02;22.23;;;6.70;99.90;;;;;;4998958;28;20086;-75
2023/01/15 01:44:43;;;;;;;26.83;22.13;;;6.70;99.90;;;;;;5000933;28;20033;-76
2023/01/15 01:47:22;;;;;;;29.42;22.08;;;6.70;99.90;;;;;;4996061;28;20073;-75
2023/01/15 01:49:58;;;;;;;31.38;23.15;;;6.70;99.90;;;;;;4997646;28;20034;-75
2023/01/15 01:52:36;;;;;;;29.90;21.92;;;6.70;99.90;;;;;;4994234;28;20549;-75
2023/01/15 01:55:03;;;;;;;30.38;21.58;;;6.70;99.90;;;;;;5006453;28;20500;-75
2023/01/15 01:57:30;;;;;;;30.17;22.23;;;6.70;99.90;;;;;;5009892;28;20094;-75
2023/01/15 01:59:58;;;;;;;28.48;21.50;;;6.70;99.90;;;;;;5003630;28;20022;-76
2023/01/15 02:02:24;;;;;;;27.65;20.45;;;6.70;99.90;;;;;;4999960;28;20095;-75
2023/01/15 02:04:50;;;;;;;26.17;20.85;;;6.70;99.90;;;;;;5001960;28;20057;-75
2023/01/15 02:07:16;;;;;;;27.23;21.52;;;6.70;99.90;;;;;;5000164;28;20038;-75
2023/01/15 02:09:42;;;;;;;26.20;20.60;;;6.70;99.90;;;;;;4999560;28;20099;-75
2023/01/15 02:12:24;;;;;;;23.67;19.15;;;6.80;99.90;;;;;;5003205;28;20480;-75
2023/01/15 02:15:17;;;;;;;27.55;21.40;;;6.80;99.90;;;;;;5000611;28;20035;-75
2023/01/15 02:17:59;;;;;;;25.55;19.88;;;6.80;99.90;;;;;;5006561;28;20014;-75
2023/01/15 02:20:35;;;;;;;23.40;18.92;;;6.80;99.90;;;;;;5006259;28;20057;-76
2023/01/15 02:23:19;;;;;;;26.45;19.10;;;6.80;99.90;;;;;;5008576;28;20034;-76
2023/01/15 02:25:47;;;;;;;24.10;18.85;;;6.80;99.90;;;;;;4992825;28;20592;-76
2023/01/15 02:28:23;;;;;;;26.42;19.42;;;6.80;99.90;;;;;;4994758;28;20037;-75
2023/01/15 02:30:59;;;;;;;23.55;18.13;;;6.80;99.90;;;;;;4999159;28;20022;-76
2023/01/15 02:33:32;;;;;;;24.23;19.75;;;6.80;99.90;;;;;;5002773;28;20025;-75
2023/01/15 02:36:05;;;;;;;26.05;18.95;;;6.80;99.90;;;;;;4991721;28;20034;-75
2023/01/15 02:38:42;;;;;;;23.88;19.15;;;6.80;99.90;;;;;;4991676;28;20113;-75
2023/01/15 02:41:16;;;;;;;26.33;18.88;;;6.80;99.90;;;;;;4998894;28;20027;-76
2023/01/15 02:43:46;;;;;;;23.63;18.30;;;6.80;99.90;;;;;;4999569;28;20492;-76
2023/01/15 02:46:15;;;;;;;24.13;19.33;;;6.70;99.90;;;;;;4999950;28;20022;-75
2023/01/15 02:48:45;;;;;;;25.35;19.45;;;6.80;99.90;;;;;;5001958;28;20022;-75
2023/01/15 02:51:15;;;;;;;23.92;18.60;;;6.80;99.90;;;;;;5001785;28;20424;-76
2023/01/15 02:53:43;;;;;;;22.58;17.73;;;6.80;99.90;;;;;;4999307;28;20442;-76
2023/01/15 02:56:13;;;;;;;24.55;18.35;;;6.80;99.90;;;;;;5002434;28;20026;-76
2023/01/15 02:58:44;;;;;;;24.60;19.02;;;6.80;99.90;;;;;;5001432;28;20458;-76
2023/01/15 03:01:19;;;;;;;22.40;17.75;;;6.80;99.90;;;;;;5001013;28;20362;-75
2023/01/15 03:04:11;;;;;;;22.25;18.95;;;6.80;99.90;;;;;;5000342;28;20417;-76
2023/01/15 03:06:42;;;;;;;21.80;17.83;;;6.80;99.90;;;;;;5000271;28;20026;-76
2023/01/15 03:09:08;;;;;;;23.45;18.73;;;6.80;99.90;;;;;;4998323;28;20026;-76
2023/01/15 03:11:39;;;;;;;24.10;18.08;;;6.80;99.90;;;;;;4999615;28;20109;-75
2023/01/15 03:14:28;;;;;;;22.55;18.63;;;6.80;99.90;;;;;;5006315;28;20029;-76
2023/01/15 03:17:05;;;;;;;26.30;19.05;;;6.80;99.90;;;;;;5082425;28;20122;-75
2023/01/15 03:19:42;;;;;;;22.73;18.27;;;6.80;99.90;;;;;;5000392;28;20026;-76
2023/01/15 03:22:16;;;;;;;20.27;16.70;;;6.80;99.90;;;;;;5001806;28;20023;-75
2023/01/15 03:25:00;;;;;;;25.42;17.35;;;6.80;99.90;;;;;;5000091;28;20030;-76
2023/01/15 03:27:26;;;;;;;21.13;16.42;;;6.80;99.90;;;;;;4999942;28;20026;-76
2023/01/15 03:30:06;;;;;;;20.23;16.38;;;6.80;99.90;;;;;;4997625;28;20462;-75
2023/01/15 03:32:32;;;;;;;22.40;16.20;;;6.80;99.90;;;;;;4999233;28;20031;-76
2023/01/15 03:35:02;;;;;;;20.20;16.20;;;6.80;99.90;;;;;;5086105;28;20034;-76
2023/01/15 03:37:28;;;;;;;19.23;15.30;;;6.90;99.90;;;;;;4999449;28;20132;-75
2023/01/15 03:39:56;;;;;;;18.48;15.27;;;6.90;99.90;;;;;;4997425;28;20415;-75
2023/01/15 03:42:43;;;;;;;21.70;16.13;;;6.90;99.90;;;;;;5001244;28;20030;-75
2023/01/15 03:45:33;;;;;;;17.38;15.02;;;6.90;99.90;;;;;;5004182;28;20510;-75
2023/01/15 03:48:15;;;;;;;18.80;14.65;;;6.90;99.90;;;;;;4999034;28;20034;-76
2023/01/15 03:50:40;;;;;;;17.38;13.45;;;6.90;99.90;;;;;;5084014;28;20037;-75
2023/01/15 03:53:15;;;;;;;19.25;14.13;;;6.90;99.90;;;;;;4998171;28;20038;-76
2023/01/15 03:56:13;;;;;;;16.00;13.30;;;6.90;99.90;;;;;;4999117;28;20084;-76
2023/01/15 03:58:55;;;;;;;15.55;12.38;;;6.90;99.90;;;;;;5000711;28;20030;-75
2023/01/15 04:01:31;;;;;;;13.88;12.40;;;6.90;99.90;;;;;;4999218;28;20034;-75
2023/01/15 04:03:58;;;;;;;15.40;12.07;;;7.00;99.90;;;;;;5000015;28;20095;-76
2023/01/15 04:06:26;;;;;;;13.50;12.10;;;7.00;99.90;;;;;;4999183;28;20030;-76
2023/01/15 04:08:54;;;;;;;12.45;11.00;;;7.00;99.90;;;;;;4997087;28;20117;-75
2023/01/15 04:11:24;;;;;;;13.30;11.35;;;7.10;99.90;;;;;;5000302;28;20404;-75
2023/01/15 04:13:50;;;;;;;13.25;10.95;;;7.10;99.90;;;;;;4997436;28;20042;-75
2023/01/15 04:16:24;;;;;;;13.68;11.70;;;7.10;99.90;;;;;;4998996;28;20018;-75
2023/01/15 04:18:50;;;;;;;15.80;12.00;;;7.10;99.90;;;;;;4999303;28;20382;-75
2023/01/15 04:21:16;;;;;;;13.02;11.43;;;7.10;99.90;;;;;;4996948;28;20080;-75
2023/01/15 04:23:42;;;;;;;14.70;11.07;;;7.10;99.90;;;;;;4998919;28;20026;-75
2023/01/15 04:26:07;;;;;;;12.32;10.60;;;7.10;99.90;;;;;;4997272;28;20057;-75
2023/01/15 04:28:33;;;;;;;11.82;10.40;;;7.10;99.90;;;;;;4999356;28;20029;-75
2023/01/15 04:30:59;;;;;;;11.40;10.10;;;7.10;99.90;;;;;;4995981;28;20027;-75
2023/01/15 04:33:25;;;;;;;12.88;10.90;;;7.10;99.90;;;;;;4999557;28;20023;-75
2023/01/15 04:35:50;;;;;;;11.77;10.55;;;7.10;99.90;;;;;;4997019;28;20030;-76
2023/01/15 04:38:19;;;;;;;12.48;10.57;;;7.10;99.90;;;;;;4999397;28;20094;-75
2023/01/15 04:46:13;;;;;;;12.00;9.95;;;7.10;99.90;;;;;;5000855;28;20226;-76
2023/01/15 04:48:39;;;;;;;11.43;10.00;;;7.20;99.90;;;;;;4999978;28;20528;-75
2023/01/15 04:51:06;;;;;;;10.18;9.18;;;7.20;99.90;;;;;;4997840;28;20505;-75
2023/01/15 04:53:32;;;;;;;10.32;9.27;;;7.20;99.90;;;;;;4998492;28;20504;-75
2023/01/15 04:56:03;;;;;;;11.20;10.00;;;7.20;99.90;;;;;;5000173;28;20124;-75
2023/01/15 04:58:29;;;;;;;11.23;10.02;;;7.20;99.90;;;;;;4999043;28;20083;-75
2023/01/15 05:00:56;;;;;;;12.05;10.52;;;7.20;99.90;;;;;;4997563;28;20117;-75
2023/01/15 05:03:22;;;;;;;11.38;9.93;;;7.20;99.90;;;;;;4997977;28;20099;-76
2023/01/15 05:05:49;;;;;;;11.07;9.95;;;7.30;99.90;;;;;;5001092;28;20034;-75
2023/01/15 05:08:15;;;;;;;13.35;10.40;;;7.20;99.90;;;;;;5001375;28;20026;-75
2023/01/15 05:10:40;;;;;;;12.15;10.07;;;7.20;99.90;;;;;;4998221;28;20033;-75
2023/01/15 05:13:06;;;;;;;11.80;10.25;;;7.20;99.90;;;;;;5000028;28;20029;-75
2023/01/15 05:15:32;;;;;;;12.95;10.77;;;7.20;99.90;;;;;;4999851;28;20052;-76
2023/01/15 05:17:57;;;;;;;11.98;10.45;;;7.20;99.90;;;;;;4998535;28;20064;-75
2023/01/15 05:20:23;;;;;;;12.75;10.65;;;7.20;99.90;;;;;;4998749;28;20022;-75
2023/01/15 05:22:49;;;;;;;13.13;10.63;;;7.20;99.90;;;;;;4996875;28;20022;-76
2023/01/15 05:25:14;;;;;;;10.48;9.48;;;7.20;99.90;;;;;;4994767;28;20030;-75
2023/01/15 05:27:41;;;;;;;10.95;9.85;;;7.20;99.90;;;;;;5000339;28;20152;-75
2023/01/15 05:30:07;;;;;;;11.77;9.63;;;7.20;99.90;;;;;;5003380;28;20180;-75
2023/01/15 05:32:33;;;;;;;10.55;9.45;;;7.20;99.90;;;;;;5001772;28;20027;-75
2023/01/15 05:34:59;;;;;;;12.52;10.48;;;7.20;99.90;;;;;;5000282;28;20034;-75
2023/01/15 05:37:24;;;;;;;10.27;8.95;;;7.30;99.90;;;;;;5003351;28;20069;-75
2023/01/15 05:39:50;;;;;;;9.73;8.77;;;7.30;99.90;;;;;;5001075;28;20394;-75
2023/01/15 05:42:16;;;;;;;11.82;9.10;;;7.30;99.90;;;;;;5000780;28;20512;-75
2023/01/15 05:44:41;;;;;;;9.75;8.77;;;7.30;99.90;;;;;;5001735;28;20436;-75
2023/01/15 05:47:09;;;;;;;11.90;9.10;;;7.30;99.90;;;;;;4999073;28;20402;-75
2023/01/15 05:49:35;;;;;;;10.48;9.38;;;7.30;99.90;;;;;;5003129;28;20030;-75
2023/01/15 05:52:01;;;;;;;11.00;9.55;;;7.30;99.90;;;;;;4993686;28;20018;-75
2023/01/15 05:54:30;;;;;;;10.30;9.30;;;7.30;99.90;;;;;;5008125;28;20030;-75
2023/01/15 05:56:56;;;;;;;9.73;8.68;;;7.30;99.90;;;;;;5010622;28;20026;-75
2023/01/15 05:59:24;;;;;;;10.80;9.63;;;7.30;99.90;;;;;;5000481;28;20025;-75
2023/01/15 06:01:51;;;;;;;13.68;9.95;;;7.30;99.90;;;;;;4995835;28;20026;-76
2023/01/15 06:04:19;;;;;;;10.70;9.52;;;7.30;99.90;;;;;;5000623;28;20054;-75
2023/01/15 06:06:46;;;;;;;9.68;8.75;;;7.30;99.90;;;;;;4999388;28;20117;-75
2023/01/15 06:09:12;;;;;;;10.52;8.48;;;7.30;99.90;;;;;;5011255;28;20026;-75
2023/01/15 06:11:39;;;;;;;8.63;7.82;;;7.30;99.90;;;;;;5008747;28;20034;-76
2023/01/15 06:14:05;;;;;;;9.85;8.50;;;7.30;99.90;;;;;;5003810;28;20030;-79
2023/01/15 06:16:31;;;;;;;10.70;9.20;;;7.30;99.90;;;;;;4998260;28;20427;-79
2023/01/15 06:19:03;;;;;;;10.88;9.77;;;7.30;99.90;;;;;;5000363;28;20482;-79
2023/01/15 06:21:30;;;;;;;11.18;9.48;;;7.30;99.90;;;;;;4997627;28;20026;-79
2023/01/15 06:23:55;;;;;;;9.27;8.38;;;7.30;99.90;;;;;;4997556;28;20030;-79
2023/01/15 06:26:25;;;;;;;11.52;8.65;;;7.30;99.90;;;;;;4997180;28;20030;-79
2023/01/15 06:28:51;;;;;;;9.65;8.75;;;7.30;99.90;;;;;;4999467;28;20026;-79
2023/01/15 06:31:20;;;;;;;9.55;8.57;;;7.30;99.90;;;;;;4999027;28;20028;-79
2023/01/15 06:33:46;;;;;;;9.52;8.60;;;7.40;99.90;;;;;;4998561;28;20027;-79
2023/01/15 06:36:16;;;;;;;9.43;8.52;;;7.40;99.90;;;;;;5000890;28;20033;-79
2023/01/15 06:38:43;;;;;;;11.25;8.40;;;7.40;99.90;;;;;;5003056;28;20021;-79
2023/01/15 06:49:35;;;;;;;10.65;9.55;;;7.50;99.90;;;;;;4998939;28;20164;-79
2023/01/15 06:52:02;;;;;;;9.73;8.73;;;7.50;99.90;;;;;;5001077;28;20482;-79
2023/01/15 06:54:27;;;;;;;9.98;8.98;;;7.50;99.90;;;;;;4999614;28;20026;-79
2023/01/15 06:56:53;;;;;;;11.88;9.73;;;7.50;99.90;;;;;;5002398;28;20528;-79
2023/01/15 06:59:19;;;;;;;10.65;9.52;;;7.50;99.90;;;;;;4999155;28;20385;-79
2023/01/15 07:01:45;;;;;;;9.65;8.75;;;7.50;99.90;;;;;;4998725;28;20026;-79
2023/01/15 07:04:10;;;;;;;13.05;9.57;;;7.50;99.90;;;;;;4998952;28;20413;-79
2023/01/15 07:06:36;;;;;;;10.00;8.82;;;7.50;99.90;;;;;;5004042;28;20065;-79
2023/01/15 07:09:02;;;;;;;11.45;9.70;;;7.50;99.90;;;;;;5002167;28;20030;-79
2023/01/15 07:11:28;;;;;;;13.60;10.43;;;7.50;99.90;;;;;;5002273;28;20566;-79
2023/01/15 07:14:04;;;;;;;13.25;11.23;;;7.50;99.90;;;;;;5001702;28;20018;-79
2023/01/15 07:16:34;;;;;;;14.13;11.98;;;7.50;99.90;;;;;;5000928;28;20037;-79
2023/01/15 07:19:00;;;;;;;14.80;11.80;;;7.50;99.90;;;;;;4996860;28;20022;-79
2023/01/15 07:21:26;;;;;;;18.65;13.80;;;7.40;99.90;;;;;;5000185;28;20050;-79
2023/01/15 07:23:53;;;;;;;17.10;14.93;;;7.40;99.90;;;;;;5000579;28;20105;-79
2023/01/15 07:26:18;;;;;;;17.52;14.68;;;7.40;99.90;;;;;;4996133;28;20033;-79
2023/01/15 07:28:44;;;;;;;16.52;13.70;;;7.40;99.90;;;;;;4996457;28;20019;-79
2023/01/15 07:31:10;;;;;;;18.33;14.02;;;7.40;99.90;;;;;;5086065;28;20143;-79
2023/01/15 07:33:36;;;;;;;19.05;15.25;;;7.40;99.90;;;;;;4999124;28;20022;-79
2023/01/15 07:36:02;;;;;;;18.30;14.75;;;7.40;99.90;;;;;;5001484;28;20113;-79
2023/01/15 07:38:28;;;;;;;17.02;13.68;;;7.30;99.90;;;;;;5001457;28;20120;-79
2023/01/15 07:51:56;;;;;;;12.32;11.00;;;7.50;99.90;;;;;;5001984;28;20168;-79
2023/01/15 07:54:22;;;;;;;12.52;10.85;;;7.50;99.90;;;;;;4994118;28;20121;-79
2023/01/15 07:56:49;;;;;;;13.98;12.57;;;7.50;99.90;;;;;;4998726;28;20025;-79
2023/01/15 07:59:14;;;;;;;14.85;12.82;;;7.50;99.90;;;;;;4998548;28;20029;-79
2023/01/15 08:01:40;;;;;;;13.90;12.48;;;7.50;99.90;;;;;;5000754;28;20022;-79
2023/01/15 08:04:09;;;;;;;13.95;12.30;;;7.60;99.90;;;;;;5000085;28;20150;-79
2023/01/15 08:06:35;;;;;;;12.85;11.65;;;7.60;99.90;;;;;;5001615;28;20025;-79
2023/01/15 08:09:01;;;;;;;12.85;11.55;;;7.60;99.90;;;;;;5001182;28;20503;-79
2023/01/15 08:16:55;;;;;;;31.92;22.83;;;7.60;99.90;;;;;;4999898;28;20052;-79
2023/01/15 08:19:21;;;;;;;33.90;24.70;;;7.50;99.90;;;;;;4997111;28;20458;-79
2023/01/15 08:21:47;;;;;;;35.47;24.42;;;7.40;99.90;;;;;;5001146;28;20037;-79
2023/01/15 08:24:13;;;;;;;32.70;23.45;;;7.40;99.90;;;;;;4995964;28;20027;-79
2023/01/15 08:26:38;;;;;;;35.22;24.30;;;7.30;99.90;;;;;;5000544;28;20036;-79
2023/01/15 08:29:04;;;;;;;30.52;23.08;;;7.30;99.90;;;;;;4997877;28;20068;-79
2023/01/15 08:31:30;;;;;;;30.77;23.02;;;7.40;99.90;;;;;;5000412;28;20058;-79
2023/01/15 08:33:55;;;;;;;32.78;22.73;;;7.40;99.90;;;;;;4995944;28;20397;-79
2023/01/15 08:36:21;;;;;;;33.72;24.20;;;7.40;99.90;;;;;;5000848;28;20060;-79
2023/01/15 08:38:50;;;;;;;33.08;23.80;;;7.40;99.90;;;;;;4998132;28;20030;-79
2023/01/15 08:41:15;;;;;;;31.05;22.98;;;7.40;99.90;;;;;;4996929;28;20024;-79
2023/01/15 08:43:41;;;;;;;32.50;22.65;;;7.40;99.90;;;;;;5006145;28;20100;-79
2023/01/15 08:46:08;;;;;;;32.25;23.08;;;7.40;99.90;;;;;;5010313;28;20064;-79
2023/01/15 08:48:34;;;;;;;28.10;22.25;;;7.50;99.90;;;;;;5010182;28;20030;-79
2023/01/15 08:51:05;;;;;;;31.02;23.77;;;7.40;99.90;;;;;;5010297;28;20032;-79
2023/01/15 08:53:31;;;;;;;33.85;25.02;;;7.50;99.90;;;;;;4994282;28;20037;-79
2023/01/15 08:55:57;;;;;;;35.08;24.63;;;7.40;99.90;;;;;;4990589;28;20109;-79
2023/01/15 08:58:23;;;;;;;36.80;24.48;;;7.40;99.90;;;;;;5002511;28;20050;-79
2023/01/15 09:00:48;;;;;;;33.22;24.27;;;7.50;99.90;;;;;;4990042;28;20022;-79
2023/01/15 09:03:14;;;;;;;35.63;25.23;;;7.50;99.90;;;;;;5007312;28;20042;-79
2023/01/15 09:05:40;;;;;;;33.83;24.42;;;7.50;99.90;;;;;;5008942;28;20026;-79
2023/01/15 09:08:06;;;;;;;34.85;24.58;;;7.50;99.90;;;;;;5008849;28;20026;-79
2023/01/15 09:10:33;;;;;;;35.13;23.58;;;7.50;99.90;;;;;;5026862;28;20028;-79
2023/01/15 09:13:02;;;;;;;34.88;24.80;;;7.50;99.90;;;;;;5010111;28;20611;-79
2023/01/15 09:15:30;;;;;;;32.13;22.67;;;7.50;99.90;;;;;;5000457;28;20030;-79
2023/01/15 09:17:56;;;;;;;34.97;24.25;;;7.50;99.90;;;;;;5006672;28;20090;-79
2023/01/15 09:20:22;;;;;;;34.35;24.65;;;7.60;99.90;;;;;;5001513;28;20037;-79
2023/01/15 09:22:49;;;;;;;35.10;24.00;;;7.60;99.90;;;;;;5008555;28;20034;-79
2023/01/15 09:25:17;;;;;;;31.90;23.98;;;7.60;99.90;;;;;;5007726;28;20117;-79
2023/01/15 09:27:43;;;;;;;34.97;23.85;;;7.60;99.90;;;;;;5008615;28;20070;-79
2023/01/15 09:30:15;;;;;;;33.80;24.13;;;7.70;99.90;;;;;;5008432;28;20030;-79
2023/01/15 09:32:41;;;;;;;34.60;24.65;;;7.70;99.90;;;;;;5008766;28;20037;-79
2023/01/15 09:35:07;;;;;;;35.47;24.33;;;7.70;99.90;;;;;;5007053;28;20045;-79
2023/01/15 09:37:33;;;;;;;37.40;25.33;;;7.80;99.90;;;;;;5007653;28;20022;-80
2023/01/15 09:40:01;;;;;;;34.88;24.58;;;7.80;99.90;;;;;;5007156;28;20102;-79
2023/01/15 09:42:44;;;;;;;33.97;23.92;;;7.80;99.90;;;;;;5008153;28;20099;-79
2023/01/15 09:45:35;;;;;;;34.72;25.27;;;7.80;99.90;;;;;;5006674;28;20034;-79
2023/01/15 09:48:22;;;;;;;33.22;24.42;;;7.90;99.90;;;;;;5007935;28;20025;-79
2023/01/15 09:51:14;;;;;;;36.72;25.45;;;7.90;99.90;;;;;;5007727;28;20418;-79
2023/01/15 09:53:55;;;;;;;40.60;26.58;;;7.90;99.90;;;;;;5008197;28;20110;-79
2023/01/15 09:56:28;;;;;;;38.50;26.85;;;7.90;99.90;;;;;;4987583;28;20080;-80
2023/01/15 09:58:56;;;;;;;40.13;25.25;;;8.00;99.90;;;;;;4987367;28;20121;-79
2023/01/15 10:01:29;;;;;;;43.38;28.73;;;8.00;99.90;;;;;;4991457;28;20030;-79
2023/01/15 10:04:14;;;;;;;43.47;31.80;;;8.00;99.90;;;;;;5007744;28;20042;-79
2023/01/15 10:06:59;;;;;;;46.20;30.60;;;8.10;99.90;;;;;;5007683;28;20509;-79
2023/01/15 10:09:33;;;;;;;59.45;36.85;;;8.10;99.90;;;;;;5007730;28;20037;-79
2023/01/15 10:15:12;;;;;;;42.35;30.00;;;8.10;99.90;;;;;;5010287;28;20041;-79
2023/01/15 10:17:41;;;;;;;47.25;32.83;;;8.20;99.90;;;;;;5080749;28;20431;-79
2023/01/15 10:20:22;;;;;;;46.50;31.63;;;8.20;99.90;;;;;;4998155;28;20393;-79
2023/01/15 10:23:07;;;;;;;46.15;32.08;;;8.20;99.90;;;;;;4992387;28;20494;-79
2023/01/15 10:25:46;;;;;;;48.38;31.60;;;8.20;99.90;;;;;;5011052;28;20030;-79
2023/01/15 10:28:27;;;;;;;45.47;32.42;;;8.20;99.90;;;;;;4990411;28;20026;-79
2023/01/15 10:30:55;;;;;;;39.85;29.42;;;8.30;99.90;;;;;;5000414;28;20045;-80
2023/01/15 10:33:27;;;;;;;39.30;26.88;;;8.30;99.90;;;;;;4999377;28;20045;-79
2023/01/15 10:36:09;;;;;;;36.67;26.73;;;8.30;99.90;;;;;;4990695;28;20099;-79
2023/01/15 10:38:49;;;;;;;39.13;28.90;;;8.30;99.90;;;;;;4990659;28;20026;-79
2023/01/15 10:41:24;;;;;;;39.30;27.98;;;8.30;99.90;;;;;;5005306;28;20075;-78
2023/01/15 10:43:56;;;;;;;40.08;29.10;;;8.30;99.90;;;;;;4990726;28;20625;-78
2023/01/15 10:46:32;;;;;;;38.92;28.48;;;8.30;99.90;;;;;;4990855;28;20670;-79
2023/01/15 10:49:17;;;;;;;42.03;29.77;;;8.30;99.90;;;;;;4989940;28;20033;-79
2023/01/15 10:51:54;;;;;;;44.75;30.13;;;8.30;99.90;;;;;;5009556;28;20508;-79
2023/01/15 10:54:39;;;;;;;44.17;31.40;;;8.30;99.90;;;;;;5010380;28;20713;-79
2023/01/15 10:57:32;;;;;;;44.58;31.73;;;8.40;99.90;;;;;;4990833;28;20030;-79
2023/01/15 11:00:00;;;;;;;44.67;32.42;;;8.30;99.90;;;;;;4991208;28;20018;-79
2023/01/15 11:03:05;;;;;;;45.67;32.80;;;8.30;99.90;;;;;;4991220;28;20120;-79
2023/01/15 11:05:32;;;;;;;50.88;36.05;;;8.20;99.90;;;;;;5014954;28;20048;-79
2023/01/15 11:07:59;;;;;;;45.20;33.55;;;8.10;99.90;;;;;;4999571;28;20049;-80
2023/01/15 11:10:24;;;;;;;52.30;36.88;;;8.10;99.90;;;;;;4992300;28;20478;-79
2023/01/15 11:21:21;;;;;;;50.92;34.03;;;8.00;99.90;;;;;;4998329;28;20052;-74
2023/01/15 11:23:49;;;;;;;45.47;32.58;;;8.00;99.90;;;;;;4996296;28;20458;-74
2023/01/15 11:26:30;;;;;;;44.33;32.80;;;8.00;99.90;;;;;;4996056;28;20030;-74
2023/01/15 11:28:58;;;;;;;44.10;32.38;;;8.00;99.90;;;;;;4996238;28;20109;-74
2023/01/15 11:31:37;;;;;;;45.33;33.00;;;8.00;99.90;;;;;;4999261;28;20061;-74
2023/01/15 11:34:06;;;;;;;43.97;32.72;;;8.00;99.90;;;;;;4999746;28;20026;-74
2023/01/15 11:36:33;;;;;;;47.17;32.85;;;7.90;99.90;;;;;;5000072;28;20034;-74
2023/01/15 11:38:58;;;;;;;45.03;33.17;;;7.90;99.90;;;;;;5001430;28;20383;-74
2023/01/15 11:52:48;;;;;;;53.63;39.20;;;7.90;99.90;;;;;;5000874;28;20561;-74
2023/01/15 11:55:19;;;;;;;57.17;40.08;;;7.90;99.90;;;;;;4997170;28;20030;-74
2023/01/15 11:57:46;;;;;;;55.05;40.17;;;7.90;99.90;;;;;;4999121;28;20026;-74
2023/01/15 12:00:27;;;;;;;64.07;41.00;;;8.00;99.90;;;;;;5001231;28;20491;-74
2023/01/15 12:03:01;;;;;;;60.78;41.97;;;8.00;99.90;;;;;;4999998;28;20385;-74
2023/01/15 12:05:35;;;;;;;62.35;42.38;;;8.00;99.90;;;;;;5000050;28;20061;-74
2023/01/15 12:08:15;;;;;;;57.60;42.30;;;8.00;99.90;;;;;;4996351;28;20023;-74
2023/01/15 12:11:06;;;;;;;61.05;42.92;;;8.00;99.90;;;;;;5001304;28;20017;-74
2023/01/15 12:13:37;;;;;;;60.75;42.03;;;8.00;99.90;;;;;;4998527;28;20079;-74
2023/01/15 12:16:29;;;;;;;60.45;43.15;;;8.00;99.90;;;;;;4998077;28;20117;-74
2023/01/15 12:19:21;;;;;;;66.68;48.28;;;8.00;99.90;;;;;;5007348;28;20034;-74
2023/01/15 12:22:20;;;;;;;63.47;43.38;;;8.00;99.90;;;;;;5002107;28;20055;-74
2023/01/15 12:25:21;;;;;;;60.50;42.67;;;8.00;99.90;;;;;;4999906;28;20108;-74
2023/01/15 12:27:58;;;;;;;62.28;43.65;;;8.00;99.90;;;;;;4995638;28;20041;-74
2023/01/15 12:30:40;;;;;;;65.88;44.70;;;8.10;99.90;;;;;;4994837;28;20026;-74
2023/01/15 12:33:42;;;;;;;66.95;46.80;;;8.10;99.90;;;;;;4995315;28;20071;-74
2023/01/15 12:36:14;;;;;;;70.40;48.30;;;8.10;99.90;;;;;;4995944;28;20027;-74
2023/01/15 12:38:56;;;;;;;69.47;48.00;;;8.10;99.90;;;;;;5001632;28;20071;-74
2023/01/15 12:44:59;;;;;;;67.22;47.60;;;8.10;99.90;;;;;;4993430;28;20029;-74
2023/01/15 12:47:11;;;;;;;69.47;49.95;;;8.20;99.90;;;;;;4997516;28;20041;-74
2023/01/15 12:49:45;;;;;;;70.97;48.72;;;8.10;99.90;;;;;;4993578;28;20030;-74
2023/01/15 12:52:14;;;;;;;70.90;51.22;;;8.10;99.90;;;;;;5000810;28;20038;-74
2023/01/15 12:55:10;;;;;;;73.10;51.28;;;8.10;99.90;;;;;;5004058;28;20057;-74
2023/01/15 12:57:39;;;;;;;70.60;50.63;;;8.10;99.90;;;;;;5004957;28;20090;-74
2023/01/15 13:00:17;;;;;;;69.75;48.08;;;8.10;99.90;;;;;;5001641;28;20409;-74
2023/01/15 13:03:00;;;;;;;54.00;37.10;;;8.10;99.90;;;;;;4997148;28;20025;-74
2023/01/15 13:05:31;;;;;;;67.13;47.60;;;8.10;99.90;;;;;;4998001;28;20121;-74
2023/01/15 13:08:19;;;;;;;67.68;46.50;;;8.00;99.90;;;;;;5006312;28;20057;-74
2023/01/15 13:10:47;;;;;;;72.20;47.53;;;8.10;99.90;;;;;;4996581;28;20062;-74
2023/01/15 13:13:17;;;;;;;66.30;46.45;;;8.00;99.90;;;;;;4996722;28;20123;-74
2023/01/15 13:15:59;;;;;;;65.88;46.75;;;8.00;99.90;;;;;;4998040;28;20080;-74
2023/01/15 13:19:13;;;;;;;68.57;47.75;;;8.00;99.90;;;;;;4998923;28;20578;-74
2023/01/15 13:21:40;;;;;;;66.38;48.08;;;8.00;99.90;;;;;;5019376;28;20060;-74
2023/01/15 13:24:24;;;;;;;65.15;46.35;;;8.00;99.90;;;;;;4993549;28;20079;-74
2023/01/15 13:27:27;;;;;;;67.05;48.65;;;8.00;99.90;;;;;;4996234;28;20042;-74
2023/01/15 13:30:01;;;;;;;71.85;51.80;;;8.10;99.90;;;;;;4998654;28;20019;-74
2023/01/15 13:32:41;;;;;;;74.00;51.75;;;8.10;99.90;;;;;;4996255;28;20646;-73
2023/01/15 13:35:30;;;;;;;76.47;54.30;;;8.10;99.90;;;;;;4997338;28;20504;-74
2023/01/15 13:38:00;;;;;;;82.72;55.88;;;8.10;99.90;;;;;;4997250;28;20109;-73
2023/01/15 13:40:37;;;;;;;82.03;57.45;;;8.10;99.90;;;;;;4998945;28;20031;-74
2023/01/15 13:43:05;;;;;;;83.05;57.63;;;8.10;99.90;;;;;;4997556;28;20541;-74
2023/01/15 13:45:38;;;;;;;84.13;56.00;;;8.10;99.90;;;;;;4998403;28;20126;-74
2023/01/15 13:48:16;;;;;;;83.65;57.13;;;8.10;99.90;;;;;;5001438;28;20018;-74
2023/01/15 13:51:03;;;;;;;80.22;55.40;;;8.10;99.90;;;;;;5003371;28;20410;-74
2023/01/15 13:53:37;;;;;;;77.63;54.35;;;8.10;99.90;;;;;;5002491;28;20034;-74
2023/01/15 13:56:16;;;;;;;84.80;55.38;;;8.10;99.90;;;;;;5001965;28;20505;-73
2023/01/15 13:59:00;;;;;;;82.72;58.33;;;8.20;99.90;;;;;;5001114;28;20029;-74
2023/01/15 14:01:29;;;;;;;75.85;55.67;;;8.10;99.90;;;;;;5000974;28;20060;-74